sensor_id;sensor_type;location;lat;lon;timestamp;P1;durP1;ratioP1;P2;durP2;ratioP2
72301;SDS011;73902;52.234;5.186;2023-11-21T00:00:12;24.83;;;9.35;;
72301;SDS011;73902;52.234;5.186;2023-11-21T00:02:38;22.00;;;8.32;;
72301;SDS011;73902;52.234;5.186;2023-11-21T00:05:10;26.70;;;9.15;;
72301;SDS011;73902;52.234;5.186;2023-11-21T00:07:37;22.33;;;8.35;;
72301;SDS011;73902;52.234;5.186;2023-11-21T00:10:03;20.40;;;7.90;;
72301;SDS011;73902;52.234;5.186;2023-11-21T00:12:36;20.67;;;9.38;;
72301;SDS011;73902;52.234;5.186;2023-11-21T00:15:07;21.40;;;8.80;;
72301;SDS011;73902;52.234;5.186;2023-11-21T00:17:36;23.70;;;7.97;;
72301;SDS011;73902;52.234;5.186;2023-11-21T00:20:03;26.60;;;8.55;;
72301;SDS011;73902;52.234;5.186;2023-11-21T00:22:31;21.98;;;8.98;;
72301;SDS011;73902;52.234;5.186;2023-11-21T00:24:57;26.33;;;9.02;;
72301;SDS011;73902;52.234;5.186;2023-11-21T00:27:23;21.38;;;8.55;;
72301;SDS011;73902;52.234;5.186;2023-11-21T00:29:52;24.95;;;8.65;;
72301;SDS011;73902;52.234;5.186;2023-11-21T00:32:18;22.20;;;8.30;;
72301;SDS011;73902;52.234;5.186;2023-11-21T00:34:44;25.27;;;7.65;;
72301;SDS011;73902;52.234;5.186;2023-11-21T00:37:10;27.02;;;8.15;;
72301;SDS011;73902;52.234;5.186;2023-11-21T00:39:36;26.33;;;9.05;;
72301;SDS011;73902;52.234;5.186;2023-11-21T00:42:02;20.75;;;8.13;;
72301;SDS011;73902;52.234;5.186;2023-11-21T00:44:32;22.73;;;8.27;;
72301;SDS011;73902;52.234;5.186;2023-11-21T00:46:59;23.15;;;8.13;;
72301;SDS011;73902;52.234;5.186;2023-11-21T00:49:25;28.23;;;9.20;;
72301;SDS011;73902;52.234;5.186;2023-11-21T00:51:51;23.10;;;8.90;;
72301;SDS011;73902;52.234;5.186;2023-11-21T00:54:17;22.10;;;7.78;;
72301;SDS011;73902;52.234;5.186;2023-11-21T00:56:43;25.45;;;9.30;;
72301;SDS011;73902;52.234;5.186;2023-11-21T00:59:09;23.88;;;8.43;;
72301;SDS011;73902;52.234;5.186;2023-11-21T01:01:35;20.65;;;7.80;;
72301;SDS011;73902;52.234;5.186;2023-11-21T01:04:02;21.60;;;8.13;;
72301;SDS011;73902;52.234;5.186;2023-11-21T01:06:29;22.40;;;8.52;;
72301;SDS011;73902;52.234;5.186;2023-11-21T01:08:55;28.92;;;8.68;;
72301;SDS011;73902;52.234;5.186;2023-11-21T01:11:21;25.27;;;8.02;;
72301;SDS011;73902;52.234;5.186;2023-11-21T01:13:47;20.35;;;8.45;;
72301;SDS011;73902;52.234;5.186;2023-11-21T01:16:13;22.40;;;8.55;;
72301;SDS011;73902;52.234;5.186;2023-11-21T01:18:38;25.77;;;8.52;;
72301;SDS011;73902;52.234;5.186;2023-11-21T01:21:05;23.45;;;8.18;;
72301;SDS011;73902;52.234;5.186;2023-11-21T01:23:32;23.60;;;8.45;;
72301;SDS011;73902;52.234;5.186;2023-11-21T01:25:58;21.13;;;8.00;;
72301;SDS011;73902;52.234;5.186;2023-11-21T01:28:24;23.00;;;7.60;;
72301;SDS011;73902;52.234;5.186;2023-11-21T01:30:51;26.10;;;8.77;;
72301;SDS011;73902;52.234;5.186;2023-11-21T01:33:21;21.95;;;7.57;;
72301;SDS011;73902;52.234;5.186;2023-11-21T01:35:49;23.88;;;8.25;;
72301;SDS011;73902;52.234;5.186;2023-11-21T01:38:15;22.38;;;8.05;;
72301;SDS011;73902;52.234;5.186;2023-11-21T01:40:42;19.33;;;8.13;;
72301;SDS011;73902;52.234;5.186;2023-11-21T01:43:08;21.30;;;7.60;;
72301;SDS011;73902;52.234;5.186;2023-11-21T01:45:34;20.58;;;8.48;;
72301;SDS011;73902;52.234;5.186;2023-11-21T01:48:00;23.45;;;8.48;;
72301;SDS011;73902;52.234;5.186;2023-11-21T01:50:27;20.45;;;8.00;;
72301;SDS011;73902;52.234;5.186;2023-11-21T01:52:54;19.42;;;7.70;;
72301;SDS011;73902;52.234;5.186;2023-11-21T01:55:20;24.35;;;7.18;;
72301;SDS011;73902;52.234;5.186;2023-11-21T01:57:46;17.63;;;8.05;;
72301;SDS011;73902;52.234;5.186;2023-11-21T02:00:13;18.80;;;6.88;;
72301;SDS011;73902;52.234;5.186;2023-11-21T02:02:42;19.42;;;7.10;;
72301;SDS011;73902;52.234;5.186;2023-11-21T02:05:09;21.33;;;7.15;;
72301;SDS011;73902;52.234;5.186;2023-11-21T02:07:37;19.30;;;6.97;;
72301;SDS011;73902;52.234;5.186;2023-11-21T02:10:03;21.02;;;6.93;;
72301;SDS011;73902;52.234;5.186;2023-11-21T02:12:29;17.60;;;6.63;;
72301;SDS011;73902;52.234;5.186;2023-11-21T02:14:55;18.13;;;6.65;;
72301;SDS011;73902;52.234;5.186;2023-11-21T02:17:21;18.63;;;7.43;;
72301;SDS011;73902;52.234;5.186;2023-11-21T02:19:47;17.98;;;6.28;;
72301;SDS011;73902;52.234;5.186;2023-11-21T02:22:16;15.98;;;6.18;;
72301;SDS011;73902;52.234;5.186;2023-11-21T02:24:43;18.67;;;6.95;;
72301;SDS011;73902;52.234;5.186;2023-11-21T02:27:10;17.02;;;6.88;;
72301;SDS011;73902;52.234;5.186;2023-11-21T02:29:36;16.63;;;6.25;;
72301;SDS011;73902;52.234;5.186;2023-11-21T02:32:03;20.33;;;6.25;;
72301;SDS011;73902;52.234;5.186;2023-11-21T02:34:29;19.48;;;7.20;;
72301;SDS011;73902;52.234;5.186;2023-11-21T02:36:55;20.40;;;7.25;;
72301;SDS011;73902;52.234;5.186;2023-11-21T02:39:22;18.58;;;6.35;;
72301;SDS011;73902;52.234;5.186;2023-11-21T02:41:49;21.45;;;6.72;;
72301;SDS011;73902;52.234;5.186;2023-11-21T02:44:15;15.32;;;6.45;;
72301;SDS011;73902;52.234;5.186;2023-11-21T02:46:41;18.60;;;6.10;;
72301;SDS011;73902;52.234;5.186;2023-11-21T02:49:08;18.92;;;6.68;;
72301;SDS011;73902;52.234;5.186;2023-11-21T02:51:37;14.93;;;5.97;;
72301;SDS011;73902;52.234;5.186;2023-11-21T02:54:04;18.23;;;6.50;;
72301;SDS011;73902;52.234;5.186;2023-11-21T02:56:32;17.42;;;6.22;;
72301;SDS011;73902;52.234;5.186;2023-11-21T02:58:58;17.63;;;6.38;;
72301;SDS011;73902;52.234;5.186;2023-11-21T03:01:25;21.95;;;5.97;;
72301;SDS011;73902;52.234;5.186;2023-11-21T03:03:51;15.25;;;5.88;;
72301;SDS011;73902;52.234;5.186;2023-11-21T03:06:20;20.13;;;6.07;;
72301;SDS011;73902;52.234;5.186;2023-11-21T03:08:46;21.90;;;6.35;;
72301;SDS011;73902;52.234;5.186;2023-11-21T03:11:13;18.25;;;5.85;;
72301;SDS011;73902;52.234;5.186;2023-11-21T03:13:40;20.95;;;6.95;;
72301;SDS011;73902;52.234;5.186;2023-11-21T03:16:07;16.48;;;5.80;;
72301;SDS011;73902;52.234;5.186;2023-11-21T03:18:34;15.35;;;5.63;;
72301;SDS011;73902;52.234;5.186;2023-11-21T03:21:00;19.70;;;6.50;;
72301;SDS011;73902;52.234;5.186;2023-11-21T03:23:26;17.75;;;6.00;;
72301;SDS011;73902;52.234;5.186;2023-11-21T03:25:52;20.30;;;6.00;;
72301;SDS011;73902;52.234;5.186;2023-11-21T03:28:18;19.75;;;6.45;;
72301;SDS011;73902;52.234;5.186;2023-11-21T03:30:44;15.45;;;6.65;;
72301;SDS011;73902;52.234;5.186;2023-11-21T03:33:10;17.02;;;6.43;;
72301;SDS011;73902;52.234;5.186;2023-11-21T03:35:36;16.60;;;5.70;;
72301;SDS011;73902;52.234;5.186;2023-11-21T03:38:02;20.40;;;6.13;;
72301;SDS011;73902;52.234;5.186;2023-11-21T03:40:28;14.60;;;5.25;;
72301;SDS011;73902;52.234;5.186;2023-11-21T03:42:54;18.85;;;6.20;;
72301;SDS011;73902;52.234;5.186;2023-11-21T03:45:20;22.35;;;6.28;;
72301;SDS011;73902;52.234;5.186;2023-11-21T03:47:46;19.17;;;6.38;;
72301;SDS011;73902;52.234;5.186;2023-11-21T03:50:12;16.30;;;6.07;;
72301;SDS011;73902;52.234;5.186;2023-11-21T03:52:38;16.05;;;5.53;;
72301;SDS011;73902;52.234;5.186;2023-11-21T03:55:04;15.02;;;5.45;;
72301;SDS011;73902;52.234;5.186;2023-11-21T03:57:30;17.85;;;5.88;;
72301;SDS011;73902;52.234;5.186;2023-11-21T03:59:56;20.17;;;6.18;;
72301;SDS011;73902;52.234;5.186;2023-11-21T04:02:22;21.70;;;6.22;;
72301;SDS011;73902;52.234;5.186;2023-11-21T04:04:50;20.48;;;5.32;;
72301;SDS011;73902;52.234;5.186;2023-11-21T04:07:16;15.35;;;5.75;;
72301;SDS011;73902;52.234;5.186;2023-11-21T04:09:42;16.67;;;6.28;;
72301;SDS011;73902;52.234;5.186;2023-11-21T04:12:08;15.70;;;5.82;;
72301;SDS011;73902;52.234;5.186;2023-11-21T04:14:34;22.23;;;6.60;;
72301;SDS011;73902;52.234;5.186;2023-11-21T04:17:00;24.75;;;6.93;;
72301;SDS011;73902;52.234;5.186;2023-11-21T04:19:26;21.50;;;6.22;;
72301;SDS011;73902;52.234;5.186;2023-11-21T04:21:52;15.82;;;6.40;;
72301;SDS011;73902;52.234;5.186;2023-11-21T04:24:18;17.38;;;5.32;;
72301;SDS011;73902;52.234;5.186;2023-11-21T04:26:44;16.15;;;5.97;;
72301;SDS011;73902;52.234;5.186;2023-11-21T04:29:10;15.88;;;6.05;;
72301;SDS011;73902;52.234;5.186;2023-11-21T04:31:42;22.67;;;5.82;;
72301;SDS011;73902;52.234;5.186;2023-11-21T04:34:08;17.95;;;5.80;;
72301;SDS011;73902;52.234;5.186;2023-11-21T04:36:34;17.45;;;5.43;;
72301;SDS011;73902;52.234;5.186;2023-11-21T04:39:00;17.77;;;5.50;;
72301;SDS011;73902;52.234;5.186;2023-11-21T04:41:29;14.10;;;5.57;;
72301;SDS011;73902;52.234;5.186;2023-11-21T04:43:56;15.20;;;5.40;;
72301;SDS011;73902;52.234;5.186;2023-11-21T04:46:23;17.60;;;6.20;;
72301;SDS011;73902;52.234;5.186;2023-11-21T04:48:49;17.63;;;6.25;;
72301;SDS011;73902;52.234;5.186;2023-11-21T04:51:15;16.45;;;5.57;;
72301;SDS011;73902;52.234;5.186;2023-11-21T04:53:41;18.00;;;6.00;;
72301;SDS011;73902;52.234;5.186;2023-11-21T04:56:07;17.92;;;5.90;;
72301;SDS011;73902;52.234;5.186;2023-11-21T04:58:33;20.42;;;6.22;;
72301;SDS011;73902;52.234;5.186;2023-11-21T05:01:04;17.92;;;5.82;;
72301;SDS011;73902;52.234;5.186;2023-11-21T05:03:30;16.77;;;6.10;;
72301;SDS011;73902;52.234;5.186;2023-11-21T05:05:57;14.35;;;5.30;;
72301;SDS011;73902;52.234;5.186;2023-11-21T05:08:22;17.95;;;5.75;;
72301;SDS011;73902;52.234;5.186;2023-11-21T05:10:49;23.05;;;6.80;;
72301;SDS011;73902;52.234;5.186;2023-11-21T05:13:16;17.15;;;6.35;;
72301;SDS011;73902;52.234;5.186;2023-11-21T05:15:42;20.95;;;6.45;;
72301;SDS011;73902;52.234;5.186;2023-11-21T05:18:09;19.33;;;6.22;;
72301;SDS011;73902;52.234;5.186;2023-11-21T05:20:35;20.55;;;6.55;;
72301;SDS011;73902;52.234;5.186;2023-11-21T05:23:04;18.73;;;6.55;;
72301;SDS011;73902;52.234;5.186;2023-11-21T05:25:30;24.70;;;6.60;;
72301;SDS011;73902;52.234;5.186;2023-11-21T05:27:57;15.40;;;5.93;;
72301;SDS011;73902;52.234;5.186;2023-11-21T05:32:52;17.13;;;5.80;;
72301;SDS011;73902;52.234;5.186;2023-11-21T05:35:18;22.27;;;6.10;;
72301;SDS011;73902;52.234;5.186;2023-11-21T05:37:45;18.23;;;5.97;;
72301;SDS011;73902;52.234;5.186;2023-11-21T05:40:11;19.13;;;6.97;;
72301;SDS011;73902;52.234;5.186;2023-11-21T05:42:38;17.13;;;6.57;;
72301;SDS011;73902;52.234;5.186;2023-11-21T05:45:05;16.58;;;6.50;;
72301;SDS011;73902;52.234;5.186;2023-11-21T05:47:44;15.55;;;6.78;;
72301;SDS011;73902;52.234;5.186;2023-11-21T05:50:11;18.00;;;6.15;;
72301;SDS011;73902;52.234;5.186;2023-11-21T05:52:39;18.60;;;6.57;;
72301;SDS011;73902;52.234;5.186;2023-11-21T05:55:06;21.50;;;6.55;;
72301;SDS011;73902;52.234;5.186;2023-11-21T05:57:33;17.75;;;6.15;;
72301;SDS011;73902;52.234;5.186;2023-11-21T06:00:01;15.43;;;6.25;;
72301;SDS011;73902;52.234;5.186;2023-11-21T06:02:35;19.73;;;6.32;;
72301;SDS011;73902;52.234;5.186;2023-11-21T06:05:01;15.73;;;6.38;;
72301;SDS011;73902;52.234;5.186;2023-11-21T06:07:29;19.98;;;6.43;;
72301;SDS011;73902;52.234;5.186;2023-11-21T06:09:55;15.88;;;6.15;;
72301;SDS011;73902;52.234;5.186;2023-11-21T06:12:21;17.83;;;5.65;;
72301;SDS011;73902;52.234;5.186;2023-11-21T06:14:47;15.73;;;5.63;;
72301;SDS011;73902;52.234;5.186;2023-11-21T06:17:13;18.73;;;6.40;;
72301;SDS011;73902;52.234;5.186;2023-11-21T06:19:39;20.67;;;6.15;;
72301;SDS011;73902;52.234;5.186;2023-11-21T06:22:06;18.98;;;5.13;;
72301;SDS011;73902;52.234;5.186;2023-11-21T06:24:32;20.10;;;4.80;;
72301;SDS011;73902;52.234;5.186;2023-11-21T06:26:58;16.08;;;5.55;;
72301;SDS011;73902;52.234;5.186;2023-11-21T06:29:23;16.58;;;4.82;;
72301;SDS011;73902;52.234;5.186;2023-11-21T06:31:49;16.38;;;5.25;;
72301;SDS011;73902;52.234;5.186;2023-11-21T06:34:15;17.15;;;4.32;;
72301;SDS011;73902;52.234;5.186;2023-11-21T06:36:41;13.63;;;4.03;;
72301;SDS011;73902;52.234;5.186;2023-11-21T06:39:07;13.48;;;3.53;;
72301;SDS011;73902;52.234;5.186;2023-11-21T06:41:34;12.77;;;4.05;;
72301;SDS011;73902;52.234;5.186;2023-11-21T06:44:00;14.63;;;4.38;;
72301;SDS011;73902;52.234;5.186;2023-11-21T06:46:26;17.42;;;4.25;;
72301;SDS011;73902;52.234;5.186;2023-11-21T06:48:52;12.98;;;4.32;;
72301;SDS011;73902;52.234;5.186;2023-11-21T06:51:18;14.63;;;4.53;;
72301;SDS011;73902;52.234;5.186;2023-11-21T06:53:44;16.10;;;4.32;;
72301;SDS011;73902;52.234;5.186;2023-11-21T06:56:19;16.70;;;4.57;;
72301;SDS011;73902;52.234;5.186;2023-11-21T06:58:45;13.95;;;3.88;;
72301;SDS011;73902;52.234;5.186;2023-11-21T07:01:12;17.23;;;4.22;;
72301;SDS011;73902;52.234;5.186;2023-11-21T07:03:38;14.25;;;3.85;;
72301;SDS011;73902;52.234;5.186;2023-11-21T07:06:04;12.35;;;3.80;;
72301;SDS011;73902;52.234;5.186;2023-11-21T07:08:30;11.77;;;3.78;;
72301;SDS011;73902;52.234;5.186;2023-11-21T07:10:56;12.75;;;3.95;;
72301;SDS011;73902;52.234;5.186;2023-11-21T07:13:22;13.35;;;3.72;;
72301;SDS011;73902;52.234;5.186;2023-11-21T07:15:48;10.93;;;3.03;;
72301;SDS011;73902;52.234;5.186;2023-11-21T07:18:15;11.52;;;3.28;;
72301;SDS011;73902;52.234;5.186;2023-11-21T07:20:41;13.90;;;4.10;;
72301;SDS011;73902;52.234;5.186;2023-11-21T07:23:07;12.25;;;3.90;;
72301;SDS011;73902;52.234;5.186;2023-11-21T07:25:33;16.30;;;3.60;;
72301;SDS011;73902;52.234;5.186;2023-11-21T07:27:59;15.95;;;4.75;;
72301;SDS011;73902;52.234;5.186;2023-11-21T07:30:25;15.13;;;3.53;;
72301;SDS011;73902;52.234;5.186;2023-11-21T07:32:52;13.73;;;3.42;;
72301;SDS011;73902;52.234;5.186;2023-11-21T07:35:18;13.20;;;3.70;;
72301;SDS011;73902;52.234;5.186;2023-11-21T07:37:44;14.30;;;3.58;;
72301;SDS011;73902;52.234;5.186;2023-11-21T07:40:11;13.85;;;3.67;;
72301;SDS011;73902;52.234;5.186;2023-11-21T07:42:38;11.73;;;3.88;;
72301;SDS011;73902;52.234;5.186;2023-11-21T07:45:05;14.48;;;3.70;;
72301;SDS011;73902;52.234;5.186;2023-11-21T07:47:32;12.82;;;3.58;;
72301;SDS011;73902;52.234;5.186;2023-11-21T07:49:59;13.38;;;4.35;;
72301;SDS011;73902;52.234;5.186;2023-11-21T07:52:25;17.00;;;4.45;;
72301;SDS011;73902;52.234;5.186;2023-11-21T07:54:51;13.60;;;4.30;;
72301;SDS011;73902;52.234;5.186;2023-11-21T07:57:17;15.70;;;4.80;;
72301;SDS011;73902;52.234;5.186;2023-11-21T07:59:43;16.27;;;4.25;;
72301;SDS011;73902;52.234;5.186;2023-11-21T08:02:09;15.93;;;4.25;;
72301;SDS011;73902;52.234;5.186;2023-11-21T08:04:35;17.58;;;4.90;;
72301;SDS011;73902;52.234;5.186;2023-11-21T08:07:01;15.48;;;4.75;;
72301;SDS011;73902;52.234;5.186;2023-11-21T08:09:29;14.68;;;5.15;;
72301;SDS011;73902;52.234;5.186;2023-11-21T08:11:55;14.75;;;4.40;;
72301;SDS011;73902;52.234;5.186;2023-11-21T08:14:21;15.82;;;4.82;;
72301;SDS011;73902;52.234;5.186;2023-11-21T08:16:50;16.27;;;4.70;;
72301;SDS011;73902;52.234;5.186;2023-11-21T08:19:16;15.63;;;4.85;;
72301;SDS011;73902;52.234;5.186;2023-11-21T08:21:43;16.58;;;4.80;;
72301;SDS011;73902;52.234;5.186;2023-11-21T08:24:10;18.85;;;5.25;;
72301;SDS011;73902;52.234;5.186;2023-11-21T08:26:37;16.70;;;4.57;;
72301;SDS011;73902;52.234;5.186;2023-11-21T08:29:03;16.85;;;4.25;;
72301;SDS011;73902;52.234;5.186;2023-11-21T08:31:31;18.33;;;4.53;;
72301;SDS011;73902;52.234;5.186;2023-11-21T08:33:58;13.55;;;4.32;;
72301;SDS011;73902;52.234;5.186;2023-11-21T08:36:25;15.30;;;4.60;;
72301;SDS011;73902;52.234;5.186;2023-11-21T08:38:51;17.50;;;4.85;;
72301;SDS011;73902;52.234;5.186;2023-11-21T08:41:17;12.45;;;4.28;;
72301;SDS011;73902;52.234;5.186;2023-11-21T08:43:47;11.70;;;3.80;;
72301;SDS011;73902;52.234;5.186;2023-11-21T08:46:13;17.23;;;4.35;;
72301;SDS011;73902;52.234;5.186;2023-11-21T08:48:40;11.15;;;3.47;;
72301;SDS011;73902;52.234;5.186;2023-11-21T08:51:09;12.07;;;4.07;;
72301;SDS011;73902;52.234;5.186;2023-11-21T08:53:36;15.18;;;3.83;;
72301;SDS011;73902;52.234;5.186;2023-11-21T08:56:02;11.52;;;3.60;;
72301;SDS011;73902;52.234;5.186;2023-11-21T08:58:29;11.52;;;3.95;;
72301;SDS011;73902;52.234;5.186;2023-11-21T09:00:55;10.45;;;3.17;;
72301;SDS011;73902;52.234;5.186;2023-11-21T09:03:21;11.52;;;3.60;;
72301;SDS011;73902;52.234;5.186;2023-11-21T09:05:47;11.38;;;3.67;;
72301;SDS011;73902;52.234;5.186;2023-11-21T09:08:13;10.88;;;3.25;;
72301;SDS011;73902;52.234;5.186;2023-11-21T09:10:39;9.95;;;2.70;;
72301;SDS011;73902;52.234;5.186;2023-11-21T09:13:08;10.07;;;3.50;;
72301;SDS011;73902;52.234;5.186;2023-11-21T09:15:35;12.00;;;3.30;;
72301;SDS011;73902;52.234;5.186;2023-11-21T09:18:01;12.20;;;3.33;;
72301;SDS011;73902;52.234;5.186;2023-11-21T09:20:27;10.77;;;2.90;;
72301;SDS011;73902;52.234;5.186;2023-11-21T09:22:53;9.48;;;2.92;;
72301;SDS011;73902;52.234;5.186;2023-11-21T09:25:21;9.90;;;3.08;;
72301;SDS011;73902;52.234;5.186;2023-11-21T09:27:47;8.25;;;2.78;;
72301;SDS011;73902;52.234;5.186;2023-11-21T09:30:14;9.93;;;2.85;;
72301;SDS011;73902;52.234;5.186;2023-11-21T09:32:41;9.77;;;3.03;;
72301;SDS011;73902;52.234;5.186;2023-11-21T09:35:10;9.30;;;2.90;;
72301;SDS011;73902;52.234;5.186;2023-11-21T09:37:36;11.52;;;3.25;;
72301;SDS011;73902;52.234;5.186;2023-11-21T09:40:03;9.13;;;3.22;;
72301;SDS011;73902;52.234;5.186;2023-11-21T09:42:31;8.80;;;3.05;;
72301;SDS011;73902;52.234;5.186;2023-11-21T09:47:35;10.48;;;4.03;;
72301;SDS011;73902;52.234;5.186;2023-11-21T09:50:01;12.10;;;3.40;;
72301;SDS011;73902;52.234;5.186;2023-11-21T09:52:28;12.55;;;3.50;;
72301;SDS011;73902;52.234;5.186;2023-11-21T09:54:55;10.23;;;2.97;;
72301;SDS011;73902;52.234;5.186;2023-11-21T09:57:25;11.35;;;3.17;;
72301;SDS011;73902;52.234;5.186;2023-11-21T09:59:53;10.85;;;3.22;;
72301;SDS011;73902;52.234;5.186;2023-11-21T10:02:26;14.90;;;3.63;;
72301;SDS011;73902;52.234;5.186;2023-11-21T10:04:56;12.15;;;3.47;;
72301;SDS011;73902;52.234;5.186;2023-11-21T10:07:24;14.00;;;3.58;;
72301;SDS011;73902;52.234;5.186;2023-11-21T10:09:51;11.13;;;3.42;;
72301;SDS011;73902;52.234;5.186;2023-11-21T10:12:17;13.10;;;3.83;;
72301;SDS011;73902;52.234;5.186;2023-11-21T10:14:46;12.85;;;3.65;;
72301;SDS011;73902;52.234;5.186;2023-11-21T10:17:14;11.55;;;3.47;;
72301;SDS011;73902;52.234;5.186;2023-11-21T10:19:44;11.40;;;3.72;;
72301;SDS011;73902;52.234;5.186;2023-11-21T10:22:12;9.63;;;3.75;;
72301;SDS011;73902;52.234;5.186;2023-11-21T10:24:39;15.88;;;4.32;;
72301;SDS011;73902;52.234;5.186;2023-11-21T10:27:10;13.80;;;4.40;;
72301;SDS011;73902;52.234;5.186;2023-11-21T10:29:38;12.43;;;4.15;;
72301;SDS011;73902;52.234;5.186;2023-11-21T10:32:05;13.40;;;5.03;;
72301;SDS011;73902;52.234;5.186;2023-11-21T10:34:31;14.23;;;4.93;;
72301;SDS011;73902;52.234;5.186;2023-11-21T10:36:57;15.40;;;4.70;;
72301;SDS011;73902;52.234;5.186;2023-11-21T10:39:24;11.85;;;4.57;;
72301;SDS011;73902;52.234;5.186;2023-11-21T10:41:55;15.10;;;4.88;;
72301;SDS011;73902;52.234;5.186;2023-11-21T10:44:22;12.10;;;4.35;;
72301;SDS011;73902;52.234;5.186;2023-11-21T10:46:59;15.43;;;5.22;;
72301;SDS011;73902;52.234;5.186;2023-11-21T10:49:26;14.52;;;4.57;;
72301;SDS011;73902;52.234;5.186;2023-11-21T10:51:55;18.67;;;5.88;;
72301;SDS011;73902;52.234;5.186;2023-11-21T10:54:24;17.58;;;5.80;;
72301;SDS011;73902;52.234;5.186;2023-11-21T10:59:17;15.63;;;5.45;;
72301;SDS011;73902;52.234;5.186;2023-11-21T11:01:45;18.08;;;5.47;;
72301;SDS011;73902;52.234;5.186;2023-11-21T11:04:14;18.27;;;5.80;;
72301;SDS011;73902;52.234;5.186;2023-11-21T11:06:45;20.30;;;6.70;;
72301;SDS011;73902;52.234;5.186;2023-11-21T11:09:15;19.27;;;6.53;;
72301;SDS011;73902;52.234;5.186;2023-11-21T11:11:42;23.83;;;6.90;;
72301;SDS011;73902;52.234;5.186;2023-11-21T11:16:41;22.90;;;6.68;;
72301;SDS011;73902;52.234;5.186;2023-11-21T11:19:08;22.42;;;7.32;;
72301;SDS011;73902;52.234;5.186;2023-11-21T11:21:40;23.92;;;7.18;;
72301;SDS011;73902;52.234;5.186;2023-11-21T11:29:18;24.25;;;6.60;;
72301;SDS011;73902;52.234;5.186;2023-11-21T11:31:55;22.13;;;7.68;;
72301;SDS011;73902;52.234;5.186;2023-11-21T11:39:27;18.83;;;5.93;;
72301;SDS011;73902;52.234;5.186;2023-11-21T11:41:55;17.20;;;5.65;;
72301;SDS011;73902;52.234;5.186;2023-11-21T11:47:31;17.05;;;5.20;;
72301;SDS011;73902;52.234;5.186;2023-11-21T11:50:03;15.38;;;4.88;;
72301;SDS011;73902;52.234;5.186;2023-11-21T11:55:03;16.23;;;4.43;;
72301;SDS011;73902;52.234;5.186;2023-11-21T11:57:30;12.13;;;4.32;;
72301;SDS011;73902;52.234;5.186;2023-11-21T12:03:05;9.80;;;3.40;;
72301;SDS011;73902;52.234;5.186;2023-11-21T12:05:32;12.43;;;4.22;;
72301;SDS011;73902;52.234;5.186;2023-11-21T12:08:06;12.55;;;4.25;;
72301;SDS011;73902;52.234;5.186;2023-11-21T12:10:33;14.13;;;4.20;;
72301;SDS011;73902;52.234;5.186;2023-11-21T12:13:01;13.40;;;4.75;;
72301;SDS011;73902;52.234;5.186;2023-11-21T12:15:27;12.45;;;4.28;;
72301;SDS011;73902;52.234;5.186;2023-11-21T12:17:55;13.90;;;4.45;;
72301;SDS011;73902;52.234;5.186;2023-11-21T12:20:22;14.27;;;4.68;;
72301;SDS011;73902;52.234;5.186;2023-11-21T12:22:55;16.50;;;5.28;;
72301;SDS011;73902;52.234;5.186;2023-11-21T12:25:25;15.15;;;4.80;;
72301;SDS011;73902;52.234;5.186;2023-11-21T12:27:54;16.25;;;5.20;;
72301;SDS011;73902;52.234;5.186;2023-11-21T12:30:21;13.63;;;5.00;;
72301;SDS011;73902;52.234;5.186;2023-11-21T12:32:49;11.90;;;4.47;;
72301;SDS011;73902;52.234;5.186;2023-11-21T12:35:16;13.73;;;5.20;;
72301;SDS011;73902;52.234;5.186;2023-11-21T12:37:44;17.10;;;4.75;;
72301;SDS011;73902;52.234;5.186;2023-11-21T12:40:14;13.63;;;4.80;;
72301;SDS011;73902;52.234;5.186;2023-11-21T12:42:42;16.05;;;5.43;;
72301;SDS011;73902;52.234;5.186;2023-11-21T12:47:43;15.93;;;4.60;;
72301;SDS011;73902;52.234;5.186;2023-11-21T12:50:09;15.65;;;5.63;;
72301;SDS011;73902;52.234;5.186;2023-11-21T12:52:42;20.75;;;5.88;;
72301;SDS011;73902;52.234;5.186;2023-11-21T12:55:13;16.02;;;5.88;;
72301;SDS011;73902;52.234;5.186;2023-11-21T12:57:43;18.77;;;5.60;;
72301;SDS011;73902;52.234;5.186;2023-11-21T13:00:10;18.80;;;6.00;;
72301;SDS011;73902;52.234;5.186;2023-11-21T13:05:07;20.15;;;6.32;;
72301;SDS011;73902;52.234;5.186;2023-11-21T13:07:43;22.90;;;7.20;;
72301;SDS011;73902;52.234;5.186;2023-11-21T13:10:12;19.45;;;7.13;;
72301;SDS011;73902;52.234;5.186;2023-11-21T13:12:45;21.45;;;7.13;;
72301;SDS011;73902;52.234;5.186;2023-11-21T13:15:16;23.15;;;6.93;;
72301;SDS011;73902;52.234;5.186;2023-11-21T13:17:46;19.55;;;6.72;;
72301;SDS011;73902;52.234;5.186;2023-11-21T13:20:13;20.90;;;7.00;;
72301;SDS011;73902;52.234;5.186;2023-11-21T13:22:53;18.35;;;7.10;;
72301;SDS011;73902;52.234;5.186;2023-11-21T13:25:22;19.13;;;6.15;;
72301;SDS011;73902;52.234;5.186;2023-11-21T13:27:48;16.67;;;6.32;;
72301;SDS011;73902;52.234;5.186;2023-11-21T13:30:15;21.90;;;6.38;;
72301;SDS011;73902;52.234;5.186;2023-11-21T13:32:42;18.98;;;7.13;;
72301;SDS011;73902;52.234;5.186;2023-11-21T13:35:08;18.05;;;6.47;;
72301;SDS011;73902;52.234;5.186;2023-11-21T13:37:43;17.33;;;6.35;;
72301;SDS011;73902;52.234;5.186;2023-11-21T13:40:10;16.92;;;6.07;;
72301;SDS011;73902;52.234;5.186;2023-11-21T13:42:40;17.85;;;6.55;;
72301;SDS011;73902;52.234;5.186;2023-11-21T13:45:06;17.52;;;6.95;;
72301;SDS011;73902;52.234;5.186;2023-11-21T13:47:33;18.10;;;6.07;;
72301;SDS011;73902;52.234;5.186;2023-11-21T13:50:01;16.52;;;5.70;;
72301;SDS011;73902;52.234;5.186;2023-11-21T13:52:28;14.88;;;5.60;;
72301;SDS011;73902;52.234;5.186;2023-11-21T13:54:58;17.60;;;6.00;;
72301;SDS011;73902;52.234;5.186;2023-11-21T13:57:27;15.38;;;5.75;;
72301;SDS011;73902;52.234;5.186;2023-11-21T13:59:53;17.77;;;6.28;;
72301;SDS011;73902;52.234;5.186;2023-11-21T14:02:19;16.92;;;6.38;;
72301;SDS011;73902;52.234;5.186;2023-11-21T14:04:53;17.05;;;6.15;;
72301;SDS011;73902;52.234;5.186;2023-11-21T14:07:25;16.70;;;6.30;;
72301;SDS011;73902;52.234;5.186;2023-11-21T14:10:00;16.60;;;7.00;;
72301;SDS011;73902;52.234;5.186;2023-11-21T14:12:26;15.65;;;6.20;;
72301;SDS011;73902;52.234;5.186;2023-11-21T14:14:53;16.65;;;6.38;;
72301;SDS011;73902;52.234;5.186;2023-11-21T14:17:20;16.50;;;6.55;;
72301;SDS011;73902;52.234;5.186;2023-11-21T14:19:47;17.50;;;6.60;;
72301;SDS011;73902;52.234;5.186;2023-11-21T14:22:14;16.00;;;6.68;;
72301;SDS011;73902;52.234;5.186;2023-11-21T14:24:42;14.45;;;5.60;;
72301;SDS011;73902;52.234;5.186;2023-11-21T14:27:12;15.52;;;5.93;;
72301;SDS011;73902;52.234;5.186;2023-11-21T14:29:38;14.43;;;5.68;;
72301;SDS011;73902;52.234;5.186;2023-11-21T14:32:08;15.98;;;6.20;;
72301;SDS011;73902;52.234;5.186;2023-11-21T14:34:34;14.43;;;6.03;;
72301;SDS011;73902;52.234;5.186;2023-11-21T14:37:01;14.52;;;6.00;;
72301;SDS011;73902;52.234;5.186;2023-11-21T14:39:30;13.75;;;5.30;;
72301;SDS011;73902;52.234;5.186;2023-11-21T14:42:00;14.52;;;5.72;;
72301;SDS011;73902;52.234;5.186;2023-11-21T14:44:28;14.32;;;5.50;;
72301;SDS011;73902;52.234;5.186;2023-11-21T14:46:57;12.25;;;5.15;;
72301;SDS011;73902;52.234;5.186;2023-11-21T14:49:25;15.68;;;5.40;;
72301;SDS011;73902;52.234;5.186;2023-11-21T14:51:53;12.70;;;5.30;;
72301;SDS011;73902;52.234;5.186;2023-11-21T14:54:29;13.40;;;4.88;;
72301;SDS011;73902;52.234;5.186;2023-11-21T14:57:05;13.73;;;5.47;;
72301;SDS011;73902;52.234;5.186;2023-11-21T15:02:06;16.58;;;6.45;;
72301;SDS011;73902;52.234;5.186;2023-11-21T15:04:41;15.88;;;6.07;;
72301;SDS011;73902;52.234;5.186;2023-11-21T15:07:07;14.43;;;6.20;;
72301;SDS011;73902;52.234;5.186;2023-11-21T15:09:33;19.55;;;7.28;;
72301;SDS011;73902;52.234;5.186;2023-11-21T15:12:00;17.92;;;6.88;;